Details From LIPX - VILLAFRANCA
To LIMJ - Genova Sestri
Flight Number -
Tags None
Created
Modified
Stats Distance 123 nm / 228 km
Max Altitude 10,000 ft / 3,048 m
Waypoints 6
Social Downloads 2
Likes 0
Share VATSIM

Download

Looking for another format? Having issues loading an existing format? Contact us
Advertisement - Login to hide

Notes

None

Route

LIPX VIL22 KALIK LULET GSE14 LIMJ

ID Type Via Altitude Latitude Longitude Leg Dist Tot Dist Heading (true) Name
O LIPX APT - 239 ft / 73 m 45.39694˚ 10.89042˚ - 0 nm - VILLAFRANCA
VIL22 FIX - 5,000 ft / 1,524 m 45.11503˚ 10.48671˚ 24 nm 24 nm 225° / 225° -
KALIK FIX - 10,000 ft / 3,048 m 44.46833˚ 9.84806˚ 47 nm 71 nm 215° / 215° -
LULET FIX - 5,000 ft / 1,524 m 44.21611˚ 9.31639˚ 27 nm 98 nm 237° / 236° -
GSE14 FIX - 2,000 ft / 610 m 44.33952˚ 9.16386˚ 9 nm 108 nm 319° / 318° -
O LIMJ APT - 0 ft / 0 m 44.41196˚ 8.84187˚ 14 nm 123 nm 288° / 287° Genova Sestri

Altitude Profile

Advertisement - Login to hide

LIPX

Details ICAO LIPX (VRN)
Name VILLAFRANCA
Region Italy
Timezone Europe/Rome (UTC+1.0)
Stats Elevation 239 ft / 73 m (AMSL)
Location 45.396942° 10.890418°
Runways 1
Magnetic Variation 2.860° E

METAR

LIPX 140420Z 30003KT 7000 FEW010 BKN050 04/03 Q1010

Decode

TAF

Not found

Departure Runways

ID Width Length Bearing (true) Bearing (mag) Surface Threshold Offset Overrun Length
04 148 ft / 45 m 10,072 ft / 3,070 m 45.79° 42.93° Asphalt 189 ft / 58 m 815 ft / 248 m
22 148 ft / 45 m 10,072 ft / 3,070 m 225.81° 222.95° Asphalt 1,345 ft / 410 m 189 ft / 58 m

LIMJ

Details ICAO LIMJ (GOA)
Name Genova Sestri
Region Italy
Timezone Unknown (UTC+0.0)
Stats Elevation 13 ft / 4 m (AMSL)
Location 44.411957° 8.841866°
Runways 1
Magnetic Variation 2.387° E

METAR

LIMJ 140420Z 14003KT 030V200 9999 FEW035 11/06 Q1009

Decode

TAF

TAF TAF LIMJ 132305Z 1318/1418 CNL

Decode

Destination Runways

ID Width Length Bearing (true) Bearing (mag) Surface Threshold Offset Overrun Length
10 148 ft / 45 m 9,574 ft / 2,918 m 105.39° 103.00° Asphalt 0 ft / 0 m 0 ft / 0 m
28 148 ft / 45 m 9,574 ft / 2,918 m 285.41° 283.02° Asphalt 538 ft / 164 m 0 ft / 0 m

Approach Navaids

Runway Type Ident Frequency Range Bearing (true) Bearing (mag) Slope Elevation
28 Localiser GSE 109.30 MHz 18 nm / 33 km 287.30° 284.91° - 9 ft / 3 m (AMSL)
28 Glidescope GSE 109.30 MHz 10 nm / 19 km 287.30° 284.91° 3.17° 26 ft / 8 m (AMSL)
28 DME GSE 109.30 MHz 18 nm / 33 km - - - 26 ft / 8 m (AMSL)

Popular Alternatives